EGMD/LYX METAR and TAF weather

Enter ICAO airport designator
Station Type Date Time Source
EGMD METAR 2019/06/17 12:50 UTC NOAA

EGMD 171250Z 23011KT 9999 FEW028 19/12 Q1019


Station Type Date Time Source
EGMD Decoded METAR 2019/06/17 12:50 UTC NOAA

Lydd Airport , United Kingdom (EGMD) 50-57N 000-56E
Jun 17, 2019 - 08:50 AM EDT / 2019.06.17 1250 UTC
Wind: from the SW (230 degrees) at 13 MPH (11 KT):0
Visibility: greater than 7 mile(s):0
Sky conditions: mostly clear
Temperature: 66 F (19 C)
Dew Point: 53 F (12 C)
Relative Humidity: 63%
Pressure (altimeter): 30.09 in. Hg (1019 hPa)
ob: EGMD 171250Z 23011KT 9999 FEW028 19/12 Q1019
cycle: 13

Station Type Date Time Source
EGMD TAF UTC NOAA

Error!

Example: see airport list